Time;durP1;ratioP1;P1;durP2;ratioP2;P2;SDS_P1;SDS_P2;PMS_P1;PMS_P2;Temp;Humidity;BMP_temperature;BMP_pressure;BME280_temperature;BME280_humidity;BME280_pressure;Samples;Min_cycle;Max_cycle;Signal;HPM_P1;HPM_P2
2022/08/29 00:01:12;;;;;;;0.65;0.30;;;16.00;68.40;;;;;;4708791;30;20101;-77
2022/08/29 00:03:39;;;;;;;1.67;0.47;;;16.00;68.50;;;;;;4721780;30;20131;-77
2022/08/29 00:06:09;;;;;;;1.10;0.22;;;16.00;68.60;;;;;;4716574;30;20041;-76
2022/08/29 00:08:36;;;;;;;4.03;0.30;;;16.00;68.70;;;;;;4733838;30;20135;-77
2022/08/29 00:11:05;;;;;;;0.45;0.20;;;16.00;68.70;;;;;;4705608;30;20083;-81
2022/08/29 00:13:34;;;;;;;2.20;0.30;;;15.90;68.70;;;;;;4741692;30;20049;-82
2022/08/29 00:16:02;;;;;;;1.33;0.30;;;15.90;68.90;;;;;;4726499;30;20083;-80
2022/08/29 00:18:29;;;;;;;1.65;0.28;;;15.80;69.00;;;;;;4705644;30;20584;-81
2022/08/29 00:20:56;;;;;;;0.68;0.20;;;15.80;69.10;;;;;;4724790;30;20040;-82
2022/08/29 00:23:23;;;;;;;0.73;0.20;;;15.80;69.20;;;;;;4704935;30;20049;-81
2022/08/29 00:25:50;;;;;;;1.45;0.40;;;15.70;69.20;;;;;;4696010;30;20097;-81
2022/08/29 00:28:21;;;;;;;2.38;0.30;;;15.70;69.30;;;;;;4734161;30;20079;-81
2022/08/29 00:30:48;;;;;;;2.17;0.45;;;15.70;69.30;;;;;;4719238;30;20059;-81
2022/08/29 00:33:16;;;;;;;0.63;0.20;;;15.70;69.40;;;;;;4719313;30;20076;-81
2022/08/29 00:35:46;;;;;;;1.80;0.20;;;15.60;69.40;;;;;;4705539;30;20048;-81
2022/08/29 00:38:15;;;;;;;3.13;0.40;;;15.60;69.50;;;;;;4718926;30;20102;-80
2022/08/29 00:40:50;;;;;;;0.77;0.30;;;15.60;69.50;;;;;;4735121;30;20049;-82
2022/08/29 00:43:30;;;;;;;1.27;0.40;;;15.60;69.60;;;;;;4733814;30;20048;-82
2022/08/29 00:46:21;;;;;;;2.28;0.30;;;15.60;69.50;;;;;;4718931;30;20134;-82
2022/08/29 00:48:56;;;;;;;0.75;0.30;;;15.60;69.60;;;;;;4742035;30;20044;-82
2022/08/29 00:51:23;;;;;;;0.52;0.20;;;15.60;69.60;;;;;;4712044;30;20053;-82
2022/08/29 00:53:58;;;;;;;0.68;0.20;;;15.60;69.70;;;;;;4719014;30;20048;-81
2022/08/29 00:56:26;;;;;;;1.38;0.30;;;15.60;69.80;;;;;;4719340;30;20495;-82
2022/08/29 00:58:59;;;;;;;1.65;0.30;;;15.50;69.70;;;;;;4719338;30;20513;-80
2022/08/29 01:01:27;;;;;;;1.00;0.28;;;15.60;69.90;;;;;;4719382;30;20438;-81
2022/08/29 01:03:54;;;;;;;1.15;0.20;;;15.50;70.50;;;;;;4733895;30;20498;-82
2022/08/29 01:06:21;;;;;;;1.52;0.30;;;15.50;69.90;;;;;;4706739;30;20052;-82
2022/08/29 01:08:49;;;;;;;0.73;0.20;;;15.50;69.90;;;;;;4730419;30;20081;-81
2022/08/29 01:14:13;;;;;;;0.60;0.20;;;15.50;70.00;;;;;;4719250;30;20059;-82
2022/08/29 01:16:41;;;;;;;0.82;0.20;;;15.50;70.10;;;;;;4714294;30;20384;-81
2022/08/29 01:19:21;;;;;;;1.27;0.35;;;15.50;70.20;;;;;;4712729;30;20067;-83
2022/08/29 01:22:14;;;;;;;1.48;0.30;;;15.50;70.20;;;;;;4723593;30;20041;-81
2022/08/29 01:24:49;;;;;;;1.58;0.45;;;15.40;70.20;;;;;;4715814;30;20507;-81
2022/08/29 01:27:23;;;;;;;1.65;0.30;;;15.40;70.20;;;;;;4704296;30;20056;-81
2022/08/29 01:29:51;;;;;;;2.20;0.52;;;15.40;70.20;;;;;;4710244;30;20060;-82
2022/08/29 01:32:18;;;;;;;1.85;0.35;;;15.40;70.20;;;;;;4722538;30;20131;-83
2022/08/29 01:34:45;;;;;;;1.70;0.30;;;15.40;70.20;;;;;;4738118;30;20103;-82
2022/08/29 01:37:15;;;;;;;1.23;0.30;;;15.40;70.20;;;;;;4705075;30;20061;-82
2022/08/29 01:39:44;;;;;;;1.38;0.30;;;15.40;70.30;;;;;;4719089;30;20059;-83
2022/08/29 01:42:19;;;;;;;1.38;0.30;;;15.40;71.00;;;;;;4719258;30;20057;-83
2022/08/29 01:44:59;;;;;;;1.40;0.30;;;15.40;70.40;;;;;;4724043;30;20056;-82
2022/08/29 01:47:33;;;;;;;2.33;0.40;;;15.40;70.40;;;;;;4709841;30;20073;-83
2022/08/29 01:50:03;;;;;;;0.60;0.20;;;15.40;70.40;;;;;;4719491;30;20064;-83
2022/08/29 01:52:31;;;;;;;2.25;0.40;;;15.40;70.50;;;;;;4704606;30;20060;-81
2022/08/29 01:54:58;;;;;;;0.88;0.20;;;15.40;70.50;;;;;;4730404;30;20079;-83
2022/08/29 01:57:25;;;;;;;1.05;0.30;;;15.30;70.50;;;;;;4718891;30;20817;-81
2022/08/29 01:59:53;;;;;;;1.50;0.47;;;15.30;70.50;;;;;;4696898;30;20091;-82
2022/08/29 02:02:24;;;;;;;2.10;0.30;;;15.30;70.60;;;;;;4692266;30;20511;-82
2022/08/29 02:04:52;;;;;;;2.42;0.35;;;15.30;70.70;;;;;;4713586;30;20133;-83
2022/08/29 02:07:23;;;;;;;1.77;0.30;;;15.30;70.80;;;;;;4719968;30;20057;-82
2022/08/29 02:09:51;;;;;;;1.75;0.30;;;15.20;70.80;;;;;;4718297;30;20537;-81
2022/08/29 02:12:19;;;;;;;1.30;0.25;;;15.30;70.80;;;;;;4717639;30;20084;-81
2022/08/29 02:14:48;;;;;;;1.27;0.55;;;15.20;70.80;;;;;;4718551;30;20037;-82
2022/08/29 02:17:15;;;;;;;1.83;0.38;;;15.20;70.80;;;;;;4718340;30;20144;-82
2022/08/29 02:19:42;;;;;;;1.48;0.20;;;15.20;70.70;;;;;;4718373;30;20522;-82
2022/08/29 02:22:10;;;;;;;1.77;0.40;;;15.20;70.70;;;;;;4720211;30;20204;-82
2022/08/29 02:24:37;;;;;;;1.65;0.30;;;15.20;70.70;;;;;;4713223;30;20050;-82
2022/08/29 02:27:04;;;;;;;1.45;0.30;;;15.20;70.80;;;;;;4711539;30;20128;-81
2022/08/29 02:29:31;;;;;;;1.33;0.30;;;15.10;70.80;;;;;;4716676;30;20053;-81
2022/08/29 02:32:06;;;;;;;1.20;0.40;;;15.10;70.80;;;;;;4733059;30;20475;-81
2022/08/29 02:34:34;;;;;;;0.98;0.30;;;15.10;70.90;;;;;;4717025;30;20067;-82
2022/08/29 02:37:03;;;;;;;1.63;0.45;;;15.00;70.90;;;;;;4718333;30;20462;-81
2022/08/29 02:39:32;;;;;;;3.80;0.60;;;15.00;71.00;;;;;;4705859;30;20586;-81
2022/08/29 02:41:59;;;;;;;1.95;0.50;;;15.00;71.00;;;;;;4709721;30;20045;-81
2022/08/29 02:44:26;;;;;;;1.73;0.50;;;15.00;71.00;;;;;;4717411;30;20052;-82
2022/08/29 02:46:53;;;;;;;1.92;0.50;;;14.90;71.00;;;;;;4703493;30;20051;-81
2022/08/29 02:49:21;;;;;;;1.40;0.40;;;14.90;71.00;;;;;;4700820;30;20508;-82
2022/08/29 02:51:48;;;;;;;1.23;0.43;;;14.90;71.00;;;;;;4717465;30;20041;-82
2022/08/29 02:54:15;;;;;;;3.25;0.40;;;14.90;71.10;;;;;;4700766;30;20064;-82
2022/08/29 02:56:42;;;;;;;2.10;0.50;;;14.90;71.10;;;;;;4720074;30;20457;-82
2022/08/29 02:59:09;;;;;;;1.52;0.60;;;14.80;71.20;;;;;;4712193;30;20049;-82
2022/08/29 03:01:39;;;;;;;1.75;0.55;;;14.80;71.30;;;;;;4698350;30;20110;-82
2022/08/29 03:04:06;;;;;;;1.85;0.60;;;14.70;71.40;;;;;;4728128;30;20507;-82
2022/08/29 03:06:33;;;;;;;2.45;0.60;;;14.70;71.50;;;;;;4721416;30;20465;-82
2022/08/29 03:09:00;;;;;;;2.45;0.70;;;14.60;72.20;;;;;;4692134;30;20061;-82
2022/08/29 03:11:28;;;;;;;2.42;0.73;;;14.60;71.60;;;;;;4736434;30;20052;-81
2022/08/29 03:13:55;;;;;;;2.80;0.63;;;14.60;71.70;;;;;;4705497;30;20144;-80
2022/08/29 03:16:25;;;;;;;3.25;0.88;;;14.50;71.60;;;;;;4695589;30;20065;-80
2022/08/29 03:18:53;;;;;;;2.78;0.50;;;14.60;71.60;;;;;;4715719;30;20057;-80
2022/08/29 03:21:22;;;;;;;3.55;0.68;;;14.50;71.50;;;;;;4714521;30;20587;-81
2022/08/29 03:23:50;;;;;;;2.40;0.32;;;14.50;71.50;;;;;;4720791;30;20068;-81
2022/08/29 03:26:18;;;;;;;4.78;1.15;;;14.50;71.50;;;;;;4725427;30;20083;-82
2022/08/29 03:28:45;;;;;;;2.55;0.60;;;14.50;71.60;;;;;;4722385;30;20071;-83
2022/08/29 03:31:15;;;;;;;3.05;0.57;;;14.50;71.60;;;;;;4731920;30;20043;-81
2022/08/29 03:33:44;;;;;;;2.10;0.60;;;14.50;71.50;;;;;;4721293;30;20052;-81
2022/08/29 03:36:11;;;;;;;2.63;0.70;;;14.50;71.50;;;;;;4703069;30;20049;-81
2022/08/29 03:38:42;;;;;;;4.50;0.65;;;14.50;71.40;;;;;;4689373;30;20515;-81
2022/08/29 03:41:10;;;;;;;2.35;0.70;;;14.50;71.40;;;;;;4721985;30;20048;-81
2022/08/29 03:43:37;;;;;;;2.88;0.80;;;14.50;71.50;;;;;;4717793;30;20049;-82
2022/08/29 03:46:04;;;;;;;2.90;0.80;;;14.50;71.50;;;;;;4723630;30;20052;-82
2022/08/29 03:48:32;;;;;;;4.25;1.00;;;14.50;71.50;;;;;;4724048;30;20409;-82
2022/08/29 03:50:59;;;;;;;4.07;0.80;;;14.50;71.60;;;;;;4703378;30;20048;-81
2022/08/29 03:53:26;;;;;;;3.50;0.73;;;14.50;71.60;;;;;;4703884;30;20108;-82
2022/08/29 03:55:53;;;;;;;3.78;1.02;;;14.50;71.50;;;;;;4718802;30;20130;-82
2022/08/29 03:58:20;;;;;;;2.95;0.70;;;14.60;71.50;;;;;;4716936;30;20084;-81
2022/08/29 04:00:48;;;;;;;3.58;0.93;;;14.70;71.30;;;;;;4724456;30;20566;-81
2022/08/29 04:03:15;;;;;;;2.92;0.70;;;14.80;71.10;;;;;;4723428;30;20098;-81
2022/08/29 04:05:42;;;;;;;3.25;0.88;;;14.90;70.90;;;;;;4712711;30;20057;-82
2022/08/29 04:08:09;;;;;;;3.63;0.98;;;14.90;70.50;;;;;;4687946;30;20053;-82
2022/08/29 04:10:37;;;;;;;3.08;0.73;;;15.10;70.20;;;;;;4716579;30;20056;-81
2022/08/29 04:13:06;;;;;;;4.45;1.00;;;15.20;70.00;;;;;;4731370;30;20045;-81
2022/08/29 04:15:36;;;;;;;3.70;0.90;;;15.20;69.70;;;;;;4717478;30;20077;-81
2022/08/29 04:18:05;;;;;;;4.03;1.00;;;15.30;69.60;;;;;;4717545;30;20053;-82
2022/08/29 04:20:39;;;;;;;2.38;0.80;;;15.40;69.50;;;;;;4715597;30;20128;-81
2022/08/29 04:23:07;;;;;;;6.18;1.25;;;15.40;69.30;;;;;;4706366;30;20559;-81
2022/08/29 04:25:35;;;;;;;3.58;0.90;;;15.50;69.30;;;;;;4716447;30;20518;-81
2022/08/29 04:28:07;;;;;;;2.83;0.85;;;15.50;69.20;;;;;;4716339;30;20125;-81
2022/08/29 04:30:35;;;;;;;4.07;0.63;;;15.50;69.00;;;;;;4716381;30;20116;-82
2022/08/29 04:33:02;;;;;;;3.17;1.10;;;15.60;69.00;;;;;;4714689;30;20049;-82
2022/08/29 04:35:29;;;;;;;3.40;0.82;;;15.60;68.80;;;;;;4702176;30;20061;-82
2022/08/29 04:37:56;;;;;;;3.17;0.88;;;15.70;68.80;;;;;;4714273;30;20061;-81
2022/08/29 04:40:23;;;;;;;2.92;0.70;;;15.70;68.70;;;;;;4707187;30;20053;-81
2022/08/29 04:42:51;;;;;;;3.83;0.90;;;15.80;68.70;;;;;;4701785;30;20049;-82
2022/08/29 04:45:22;;;;;;;2.20;0.80;;;15.80;68.60;;;;;;4710713;30;20514;-81
2022/08/29 04:47:49;;;;;;;2.20;0.60;;;15.80;68.50;;;;;;4711902;30;20049;-82
2022/08/29 04:50:20;;;;;;;2.50;0.80;;;15.80;68.40;;;;;;4718752;30;20077;-82
2022/08/29 04:52:48;;;;;;;2.50;0.73;;;15.80;68.30;;;;;;4723146;30;20049;-81
2022/08/29 04:55:18;;;;;;;2.42;0.90;;;15.80;68.20;;;;;;4701636;30;20056;-82
2022/08/29 04:57:52;;;;;;;3.88;0.77;;;15.90;68.10;;;;;;4716290;30;20045;-83
2022/08/29 05:00:22;;;;;;;2.22;0.70;;;15.90;68.00;;;;;;4716574;30;20073;-83
2022/08/29 05:02:49;;;;;;;3.67;0.90;;;15.90;67.90;;;;;;4717255;30;20061;-83
2022/08/29 05:05:17;;;;;;;2.85;0.77;;;15.90;67.80;;;;;;4718144;30;20049;-82
2022/08/29 05:07:47;;;;;;;3.30;0.90;;;15.90;67.60;;;;;;4719269;30;20077;-83
2022/08/29 05:10:19;;;;;;;4.50;0.82;;;16.00;67.60;;;;;;4692582;30;20053;-84
2022/08/29 05:12:49;;;;;;;3.10;1.15;;;16.00;67.40;;;;;;4724840;30;20388;-84
2022/08/29 05:15:20;;;;;;;2.50;0.77;;;16.00;67.40;;;;;;4697249;30;20090;-84
2022/08/29 05:17:49;;;;;;;6.07;0.80;;;16.10;67.40;;;;;;4707295;30;20572;-84
2022/08/29 05:20:17;;;;;;;2.80;0.80;;;16.10;67.30;;;;;;4695968;30;20177;-83
2022/08/29 05:22:44;;;;;;;3.00;0.80;;;16.10;67.20;;;;;;4721595;30;20057;-84
2022/08/29 05:25:12;;;;;;;2.83;0.73;;;16.10;67.10;;;;;;4721490;30;20135;-83
2022/08/29 05:27:44;;;;;;;;;;;16.20;67.10;;;;;;4721903;30;20063;-82
2022/08/29 05:30:11;;;;;;;2.13;0.68;;;16.20;67.20;;;;;;4726568;30;20297;-83
2022/08/29 05:32:38;;;;;;;2.85;0.75;;;16.20;67.20;;;;;;4693065;30;20053;-82
2022/08/29 05:35:05;;;;;;;4.05;0.77;;;16.20;67.10;;;;;;4729888;30;20045;-82
2022/08/29 05:37:33;;;;;;;3.83;0.73;;;16.20;67.10;;;;;;4736023;30;20073;-81
2022/08/29 05:40:00;;;;;;;3.08;0.85;;;16.20;67.10;;;;;;4707235;30;20420;-81
2022/08/29 05:42:27;;;;;;;1.98;0.50;;;16.30;67.10;;;;;;4730647;30;20150;-82
2022/08/29 05:44:54;;;;;;;3.58;0.80;;;16.30;66.90;;;;;;4706959;30;20080;-81
2022/08/29 05:47:21;;;;;;;2.83;0.73;;;16.40;66.80;;;;;;4704480;30;20053;-80
2022/08/29 05:49:49;;;;;;;2.78;0.60;;;16.40;67.30;;;;;;4701899;30;20121;-82
2022/08/29 05:52:18;;;;;;;2.80;0.70;;;16.50;66.60;;;;;;4721906;30;20059;-83
2022/08/29 05:54:46;;;;;;;1.75;0.57;;;16.50;66.40;;;;;;4731578;30;20548;-84
2022/08/29 05:57:15;;;;;;;2.65;0.80;;;16.60;66.30;;;;;;4707730;30;20451;-84
2022/08/29 05:59:49;;;;;;;2.78;0.80;;;16.70;66.10;;;;;;4722975;30;20065;-84
2022/08/29 06:02:20;;;;;;;2.22;0.60;;;16.80;66.10;;;;;;4722315;30;20435;-84
2022/08/29 06:04:49;;;;;;;1.83;0.60;;;16.90;65.90;;;;;;4721322;30;20076;-82
2022/08/29 06:07:16;;;;;;;4.90;0.70;;;17.00;65.80;;;;;;4722228;30;20056;-83
2022/08/29 06:09:44;;;;;;;1.90;0.70;;;17.00;65.60;;;;;;4721137;30;20053;-82
2022/08/29 06:12:14;;;;;;;2.70;0.70;;;17.10;65.50;;;;;;4706712;30;20411;-82
2022/08/29 06:14:41;;;;;;;2.45;0.80;;;17.10;66.10;;;;;;4721063;30;20107;-83
2022/08/29 06:17:16;;;;;;;2.00;0.68;;;17.10;65.30;;;;;;4707991;30;20053;-84
2022/08/29 06:19:43;;;;;;;3.05;0.90;;;17.10;65.30;;;;;;4704031;30;20123;-83
2022/08/29 06:22:11;;;;;;;3.08;0.80;;;17.10;65.10;;;;;;4704500;30;21085;-83
2022/08/29 06:24:38;;;;;;;1.73;0.60;;;17.00;65.10;;;;;;4722168;30;20100;-83
2022/08/29 06:27:10;;;;;;;2.57;0.60;;;17.10;65.20;;;;;;4710558;30;20053;-82
2022/08/29 06:29:37;;;;;;;4.18;1.38;;;17.00;65.10;;;;;;4718362;30;20132;-82
2022/08/29 06:32:10;;;;;;;2.58;1.17;;;17.10;65.10;;;;;;4703624;30;20403;-82
2022/08/29 06:34:37;;;;;;;4.32;1.17;;;17.10;65.10;;;;;;4705286;30;20406;-82
2022/08/29 06:37:04;;;;;;;4.05;1.02;;;17.20;65.00;;;;;;4703889;30;20533;-82
2022/08/29 06:39:31;;;;;;;2.92;0.80;;;17.20;65.50;;;;;;4702569;30;20061;-77
2022/08/29 06:41:59;;;;;;;3.60;1.20;;;17.40;64.70;;;;;;4707105;30;20053;-78
2022/08/29 06:44:26;;;;;;;1.38;0.50;;;17.50;64.70;;;;;;4720880;30;20602;-78
2022/08/29 06:46:57;;;;;;;2.55;0.60;;;17.60;64.50;;;;;;4703745;30;20049;-78
2022/08/29 06:49:26;;;;;;;1.77;0.57;;;17.70;64.40;;;;;;4723852;30;20053;-78
2022/08/29 06:51:53;;;;;;;3.92;0.80;;;17.70;64.30;;;;;;4722169;30;20041;-77
2022/08/29 06:54:26;;;;;;;4.20;1.08;;;17.80;64.30;;;;;;4720001;30;20144;-79
2022/08/29 06:56:55;;;;;;;2.08;0.45;;;17.90;64.20;;;;;;4719656;30;20049;-79
2022/08/29 06:59:22;;;;;;;2.25;0.50;;;18.00;64.00;;;;;;4717766;30;20065;-78
2022/08/29 07:01:49;;;;;;;2.13;0.70;;;18.10;63.90;;;;;;4703343;30;20080;-79
2022/08/29 07:04:16;;;;;;;3.08;0.63;;;18.30;63.80;;;;;;4717571;30;20057;-79
2022/08/29 07:06:50;;;;;;;1.98;0.50;;;18.30;63.60;;;;;;4703437;30;20053;-79
2022/08/29 07:09:18;;;;;;;2.38;0.90;;;18.40;63.50;;;;;;4725898;30;20103;-77
2022/08/29 07:11:45;;;;;;;2.20;0.80;;;18.40;63.40;;;;;;4713070;30;20045;-78
2022/08/29 07:14:12;;;;;;;2.08;0.50;;;18.50;63.30;;;;;;4718702;30;20057;-78
2022/08/29 07:16:40;;;;;;;2.30;0.50;;;18.60;63.20;;;;;;4718022;30;20120;-76
2022/08/29 07:19:09;;;;;;;2.67;0.60;;;18.70;63.00;;;;;;4703366;30;20057;-78
2022/08/29 07:21:36;;;;;;;3.10;0.65;;;18.80;62.80;;;;;;4718054;30;20132;-78
2022/08/29 07:24:04;;;;;;;3.13;0.50;;;18.90;62.60;;;;;;4703891;30;20608;-79
2022/08/29 07:26:40;;;;;;;1.98;0.60;;;19.00;62.50;;;;;;4707505;30;20061;-78
2022/08/29 07:29:12;;;;;;;1.55;0.40;;;19.00;62.30;;;;;;4722185;30;20364;-78
2022/08/29 07:31:39;;;;;;;2.35;0.57;;;19.00;62.30;;;;;;4716609;30;20048;-79
2022/08/29 07:34:07;;;;;;;1.55;0.68;;;19.00;62.20;;;;;;4718262;30;20107;-77
2022/08/29 07:36:35;;;;;;;2.08;0.50;;;19.00;62.10;;;;;;4722284;30;20503;-78
2022/08/29 07:39:09;;;;;;;1.63;0.45;;;19.10;62.10;;;;;;4743711;30;20131;-77
2022/08/29 07:41:38;;;;;;;3.42;0.65;;;19.20;61.90;;;;;;4730687;30;20461;-78
2022/08/29 07:44:05;;;;;;;3.28;0.68;;;19.30;61.80;;;;;;4735539;30;20057;-78
2022/08/29 07:46:33;;;;;;;2.17;0.68;;;19.30;61.70;;;;;;4735391;30;20057;-78
2022/08/29 07:49:00;;;;;;;3.17;0.50;;;19.30;61.80;;;;;;4719816;30;20140;-78
2022/08/29 07:51:27;;;;;;;1.63;0.40;;;19.30;61.70;;;;;;4739035;30;20052;-82
2022/08/29 07:53:55;;;;;;;1.77;0.52;;;19.40;61.70;;;;;;4745163;30;20071;-82
2022/08/29 07:56:29;;;;;;;2.92;0.47;;;19.40;61.80;;;;;;4722670;30;20056;-83
2022/08/29 07:59:03;;;;;;;1.30;0.45;;;19.50;61.70;;;;;;4710586;30;20052;-83
2022/08/29 08:01:30;;;;;;;1.95;0.65;;;19.50;61.70;;;;;;4702770;30;20077;-83
2022/08/29 08:03:57;;;;;;;2.13;0.57;;;19.50;61.70;;;;;;4731733;30;20573;-83
2022/08/29 08:06:25;;;;;;;1.55;0.60;;;19.60;61.70;;;;;;4719873;30;20458;-83
2022/08/29 08:08:54;;;;;;;2.30;0.50;;;19.60;61.60;;;;;;4705162;30;20044;-83
2022/08/29 08:11:23;;;;;;;1.90;0.45;;;19.60;61.50;;;;;;4724437;30;20793;-84
2022/08/29 08:13:54;;;;;;;2.53;0.50;;;19.70;61.70;;;;;;4719403;30;20106;-78
2022/08/29 08:16:24;;;;;;;3.00;0.68;;;19.70;61.60;;;;;;4705704;30;20083;-79
2022/08/29 08:18:52;;;;;;;1.95;0.40;;;19.90;61.40;;;;;;4719911;30;20060;-79
2022/08/29 08:21:20;;;;;;;1.90;0.50;;;20.10;61.20;;;;;;4734830;30;20153;-77
2022/08/29 08:23:47;;;;;;;2.42;0.50;;;20.20;61.00;;;;;;4719380;30;20053;-77
2022/08/29 08:26:17;;;;;;;1.33;0.35;;;20.30;60.90;;;;;;4705112;30;20064;-78
2022/08/29 08:28:45;;;;;;;1.83;0.55;;;20.40;60.90;;;;;;4718765;30;20106;-78
2022/08/29 08:31:14;;;;;;;3.97;0.73;;;20.50;60.70;;;;;;4719393;30;20498;-78
2022/08/29 08:33:43;;;;;;;2.28;0.70;;;20.60;60.60;;;;;;4719060;30;20124;-77
2022/08/29 08:36:22;;;;;;;1.50;0.45;;;20.70;60.40;;;;;;4733311;30;20123;-78
2022/08/29 08:38:51;;;;;;;1.67;0.50;;;20.70;60.30;;;;;;4716488;30;20495;-83
2022/08/29 08:41:30;;;;;;;2.03;0.80;;;20.70;60.30;;;;;;4721275;30;20107;-83
2022/08/29 08:44:03;;;;;;;1.35;0.32;;;20.70;60.20;;;;;;4724884;30;20486;-82
2022/08/29 08:46:37;;;;;;;2.00;0.70;;;20.70;60.30;;;;;;4741621;30;20052;-83
2022/08/29 08:49:13;;;;;;;1.75;0.50;;;20.70;60.10;;;;;;4724814;30;20056;-83
2022/08/29 08:51:45;;;;;;;1.63;0.40;;;20.70;60.00;;;;;;4735294;30;20059;-79
2022/08/29 08:54:22;;;;;;;1.88;0.70;;;20.80;59.80;;;;;;4736879;30;20045;-78
2022/08/29 08:57:08;;;;;;;2.63;0.90;;;20.80;59.60;;;;;;4724309;30;20509;-81
2022/08/29 08:59:41;;;;;;;1.63;0.40;;;20.70;59.60;;;;;;4720110;30;20059;-81
2022/08/29 09:02:25;;;;;;;2.85;0.60;;;20.70;59.60;;;;;;4718245;30;20130;-83
2022/08/29 09:05:02;;;;;;;1.90;0.40;;;20.80;59.30;;;;;;4722460;30;20106;-83
2022/08/29 09:07:48;;;;;;;2.50;0.50;;;21.00;59.10;;;;;;4730579;30;20044;-82
2022/08/29 09:10:59;;;;;;;1.25;0.45;;;21.10;58.90;;;;;;4719322;30;20044;-82
2022/08/29 09:13:50;;;;;;;2.20;0.70;;;21.20;58.40;;;;;;4713812;30;20584;-82
2022/08/29 09:16:33;;;;;;;2.38;0.60;;;21.20;58.30;;;;;;4719201;30;20044;-82
2022/08/29 09:19:08;;;;;;;2.75;0.57;;;21.20;58.30;;;;;;4734301;30;20040;-81
2022/08/29 09:22:05;;;;;;;1.70;0.70;;;21.20;58.30;;;;;;4734515;30;20132;-82
2022/08/29 09:24:44;;;;;;;1.90;0.70;;;21.20;58.30;;;;;;4742838;30;20045;-81
2022/08/29 09:27:24;;;;;;;1.67;0.60;;;21.20;58.50;;;;;;4734858;30;20048;-81
2022/08/29 09:30:01;;;;;;;1.60;0.50;;;21.30;58.40;;;;;;4733507;30;20110;-82
2022/08/29 09:32:28;;;;;;;1.98;0.60;;;21.40;58.30;;;;;;4718849;30;20122;-83
2022/08/29 09:34:55;;;;;;;1.20;0.40;;;21.50;58.30;;;;;;4695806;30;20040;-82
2022/08/29 09:37:35;;;;;;;1.75;0.50;;;21.70;58.00;;;;;;4723362;30;20067;-82
2022/08/29 09:40:10;;;;;;;1.70;0.40;;;21.90;57.60;;;;;;4690334;30;20083;-82
2022/08/29 09:42:42;;;;;;;1.85;0.50;;;21.90;57.40;;;;;;4738175;30;20502;-81
2022/08/29 09:45:23;;;;;;;1.60;0.60;;;21.70;57.60;;;;;;4722713;30;20049;-81
2022/08/29 09:48:13;;;;;;;2.72;0.70;;;21.60;57.80;;;;;;4716655;30;20063;-81
2022/08/29 09:50:41;;;;;;;1.77;0.57;;;21.60;57.90;;;;;;4715762;30;20049;-82
2022/08/29 09:53:08;;;;;;;1.85;0.60;;;21.60;58.00;;;;;;4712703;30;20148;-80
2022/08/29 09:55:51;;;;;;;1.40;0.50;;;21.70;57.90;;;;;;4699254;30;20526;-79
2022/08/29 09:58:18;;;;;;;1.27;0.40;;;21.60;57.80;;;;;;4718149;30;20079;-80
2022/08/29 10:01:27;;;;;;;1.67;0.50;;;21.60;57.70;;;;;;4722094;30;20040;-80
2022/08/29 10:04:01;;;;;;;1.35;0.50;;;21.60;57.60;;;;;;4724306;30;20061;-80
2022/08/29 10:06:32;;;;;;;1.20;0.40;;;21.50;57.70;;;;;;4742546;30;20090;-80
2022/08/29 10:09:08;;;;;;;2.28;0.50;;;21.50;57.70;;;;;;4741795;30;20052;-80
2022/08/29 10:11:42;;;;;;;3.28;0.60;;;21.60;57.70;;;;;;4726057;30;20048;-80
2022/08/29 10:14:37;;;;;;;3.40;0.68;;;21.50;57.80;;;;;;4712658;30;20049;-82
2022/08/29 10:20:27;;;;;;;2.45;0.55;;;21.50;58.00;;;;;;4731779;30;20502;-81
2022/08/29 10:23:08;;;;;;;1.55;0.30;;;21.50;58.00;;;;;;4735891;30;20045;-80
2022/08/29 10:25:40;;;;;;;1.55;0.52;;;21.60;58.00;;;;;;4721417;30;20449;-81
2022/08/29 10:28:27;;;;;;;1.38;0.40;;;21.60;58.10;;;;;;4736861;30;20083;-82
2022/08/29 10:31:24;;;;;;;1.02;0.30;;;21.50;58.20;;;;;;4736602;30;20037;-83
2022/08/29 10:34:00;;;;;;;1.20;0.35;;;21.60;58.30;;;;;;4721270;30;20134;-82
2022/08/29 10:36:35;;;;;;;1.23;0.30;;;21.70;58.30;;;;;;4726269;30;20068;-81
2022/08/29 10:39:02;;;;;;;1.20;0.20;;;21.90;58.10;;;;;;4721068;30;20078;-82
2022/08/29 10:41:56;;;;;;;1.05;0.40;;;22.10;57.80;;;;;;4720749;30;20068;-79
2022/08/29 10:44:52;;;;;;;0.93;0.20;;;22.40;57.30;;;;;;4720660;30;20141;-78
2022/08/29 10:47:25;;;;;;;1.05;0.38;;;22.90;56.70;;;;;;4729594;30;20395;-79
2022/08/29 10:50:23;;;;;;;1.80;0.40;;;23.00;56.60;;;;;;4718206;30;20078;-77
2022/08/29 10:53:16;;;;;;;1.23;0.40;;;23.30;56.10;;;;;;4734725;30;20522;-77
2022/08/29 10:55:56;;;;;;;1.90;0.32;;;23.20;56.00;;;;;;4716789;30;20064;-77
2022/08/29 10:59:04;;;;;;;2.97;0.40;;;23.10;56.10;;;;;;4723607;30;20044;-76
2022/08/29 11:01:34;;;;;;;1.38;0.40;;;22.90;56.50;;;;;;4738341;30;20631;-77
2022/08/29 11:04:01;;;;;;;1.95;0.45;;;22.80;56.80;;;;;;4726261;30;20053;-77
2022/08/29 11:06:36;;;;;;;1.63;0.40;;;22.80;56.80;;;;;;4719510;30;20041;-78
2022/08/29 11:09:14;;;;;;;1.35;0.35;;;22.80;56.70;;;;;;4726883;30;20044;-77
2022/08/29 11:11:58;;;;;;;1.58;0.50;;;22.90;56.70;;;;;;4720548;30;20102;-82
2022/08/29 11:14:51;;;;;;;1.05;0.30;;;23.00;56.60;;;;;;4736089;30;20103;-82
2022/08/29 11:17:21;;;;;;;2.55;0.40;;;23.00;56.70;;;;;;4736082;30;20045;-81
2022/08/29 11:20:18;;;;;;;0.77;0.20;;;22.90;56.90;;;;;;4720669;30;20065;-82
2022/08/29 11:22:54;;;;;;;1.55;0.40;;;23.10;56.80;;;;;;4735016;30;20098;-82
2022/08/29 11:25:22;;;;;;;1.35;0.35;;;23.20;56.60;;;;;;4736594;30;20052;-82
2022/08/29 11:28:13;;;;;;;5.60;0.55;;;23.40;56.40;;;;;;4706478;30;20143;-82
2022/08/29 11:30:57;;;;;;;1.70;0.50;;;24.00;55.50;;;;;;4735093;30;20052;-80
2022/08/29 11:33:37;;;;;;;1.95;0.40;;;25.10;54.10;;;;;;4740107;30;20052;-79
2022/08/29 11:36:19;;;;;;;1.17;0.43;;;26.20;52.40;;;;;;4719989;30;20056;-78
2022/08/29 11:38:46;;;;;;;1.52;0.40;;;26.70;51.50;;;;;;4737510;30;20044;-78
2022/08/29 11:41:20;;;;;;;0.95;0.30;;;26.90;51.40;;;;;;4739790;30;20449;-79
2022/08/29 11:44:25;;;;;;;1.17;0.20;;;27.00;51.00;;;;;;4735613;30;20072;-80
2022/08/29 11:46:53;;;;;;;2.13;0.40;;;26.60;51.10;;;;;;4707364;30;20110;-78
2022/08/29 11:49:37;;;;;;;0.95;0.30;;;26.10;52.10;;;;;;4720107;30;20057;-79
2022/08/29 11:52:07;;;;;;;1.60;0.57;;;26.20;52.20;;;;;;4738264;30;20065;-78
2022/08/29 11:54:34;;;;;;;1.92;0.50;;;26.60;51.40;;;;;;4708000;30;20060;-78
2022/08/29 11:57:01;;;;;;;1.55;0.50;;;26.80;51.10;;;;;;4736207;30;20055;-78
2022/08/29 11:59:54;;;;;;;1.67;0.50;;;26.90;50.70;;;;;;4735078;30;20080;-77
2022/08/29 12:02:28;;;;;;;1.55;0.50;;;26.60;51.00;;;;;;4719566;30;20411;-78
2022/08/29 12:05:07;;;;;;;2.03;0.68;;;26.20;51.60;;;;;;4721763;30;20083;-78
2022/08/29 12:07:37;;;;;;;1.23;0.32;;;26.00;51.90;;;;;;4725407;30;20056;-81
2022/08/29 12:10:23;;;;;;;1.20;0.50;;;26.30;51.80;;;;;;4733701;30;20044;-78
2022/08/29 12:12:56;;;;;;;1.42;0.50;;;26.20;51.50;;;;;;4726491;30;20099;-77
2022/08/29 12:15:26;;;;;;;1.80;0.40;;;25.70;51.90;;;;;;4704788;30;20049;-78
2022/08/29 12:17:59;;;;;;;1.35;0.28;;;25.20;52.60;;;;;;4713742;30;20044;-81
2022/08/29 12:20:29;;;;;;;1.13;0.40;;;25.00;53.10;;;;;;4720294;30;20395;-79
2022/08/29 12:23:16;;;;;;;1.50;0.57;;;24.80;53.00;;;;;;4719759;30;20384;-81
2022/08/29 12:25:50;;;;;;;1.52;0.40;;;24.80;53.10;;;;;;4705313;30;20161;-80
2022/08/29 12:28:47;;;;;;;1.13;0.32;;;24.80;52.90;;;;;;4713128;30;20056;-78
2022/08/29 12:31:41;;;;;;;1.25;0.50;;;24.80;52.90;;;;;;4714027;30;20116;-78
2022/08/29 12:34:38;;;;;;;1.77;0.50;;;24.70;52.70;;;;;;4743641;30;20140;-78
2022/08/29 12:37:25;;;;;;;1.75;0.40;;;24.50;52.60;;;;;;4708443;30;20060;-78
2022/08/29 12:40:19;;;;;;;1.83;0.40;;;24.20;52.70;;;;;;4729509;30;20044;-78
2022/08/29 12:43:24;;;;;;;1.58;0.45;;;24.20;53.00;;;;;;4716978;30;20099;-77
2022/08/29 12:45:52;;;;;;;0.77;0.30;;;24.10;52.80;;;;;;4725650;30;20060;-81
2022/08/29 12:48:26;;;;;;;2.70;0.60;;;24.10;53.00;;;;;;4704403;30;20048;-82
2022/08/29 12:50:53;;;;;;;1.45;0.45;;;24.20;52.70;;;;;;4718609;30;20538;-80
2022/08/29 12:53:25;;;;;;;1.30;0.50;;;24.40;52.50;;;;;;4718863;30;20136;-84
2022/08/29 12:55:58;;;;;;;1.17;0.38;;;24.50;52.20;;;;;;4712761;30;20049;-83
2022/08/29 12:58:34;;;;;;;0.75;0.20;;;24.60;52.10;;;;;;4718889;30;20064;-83
2022/08/29 13:01:05;;;;;;;1.00;0.38;;;24.60;52.00;;;;;;4719036;30;20471;-83
2022/08/29 13:03:32;;;;;;;1.58;0.47;;;24.60;51.90;;;;;;4719375;30;20064;-81
2022/08/29 13:06:10;;;;;;;3.25;0.50;;;24.60;51.60;;;;;;4727983;30;20502;-81
2022/08/29 13:08:38;;;;;;;1.75;0.47;;;24.50;51.40;;;;;;4719188;30;20057;-84
2022/08/29 13:11:08;;;;;;;1.73;0.52;;;24.50;51.60;;;;;;4719054;30;20076;-85
2022/08/29 13:13:36;;;;;;;1.33;0.50;;;24.60;51.50;;;;;;4734799;30;20464;-83
2022/08/29 13:16:06;;;;;;;0.80;0.30;;;24.60;51.40;;;;;;4704132;30;20485;-81
2022/08/29 13:18:34;;;;;;;0.98;0.30;;;24.70;51.30;;;;;;4718539;30;20056;-81
2022/08/29 13:21:24;;;;;;;1.40;0.40;;;24.70;51.30;;;;;;4718388;30;20049;-80